Time;durP1;ratioP1;P1;durP2;ratioP2;P2;SDS_P1;SDS_P2;PMS_P1;PMS_P2;Temp;Humidity;BMP_temperature;BMP_pressure;BME280_temperature;BME280_humidity;BME280_pressure;Samples;Min_cycle;Max_cycle;Signal;HPM_P1;HPM_P2
2023/08/02 00:01:14;;;;;;;0.00;0.00;;;19.50;84.30;;;;;;4986526;28;20761;-77
2023/08/02 00:03:39;;;;;;;0.20;0.20;;;19.50;84.80;;;;;;4982931;28;20054;-81
2023/08/02 00:06:05;;;;;;;1.20;1.00;;;19.60;84.50;;;;;;4978765;28;20887;-78
2023/08/02 00:08:32;;;;;;;0.47;0.47;;;19.60;84.70;;;;;;4982035;28;20034;-76
2023/08/02 00:10:58;;;;;;;0.57;0.57;;;19.50;85.10;;;;;;4982528;28;20166;-78
2023/08/02 00:13:24;;;;;;;0.63;0.63;;;19.60;84.80;;;;;;4988364;28;20046;-78
2023/08/02 00:15:52;;;;;;;0.28;0.25;;;19.70;84.70;;;;;;4985696;28;20054;-79
2023/08/02 00:18:18;;;;;;;0.25;0.25;;;19.80;84.10;;;;;;4989846;28;20073;-76
2023/08/02 00:20:44;;;;;;;0.00;0.00;;;19.70;83.90;;;;;;4986953;28;20050;-79
2023/08/02 00:23:10;;;;;;;0.10;0.10;;;19.60;84.90;;;;;;4977971;28;20503;-79
2023/08/02 00:25:35;;;;;;;0.67;0.43;;;19.60;85.30;;;;;;4983302;28;20031;-77
2023/08/02 00:28:01;;;;;;;0.10;0.10;;;19.70;85.60;;;;;;4982414;28;20113;-77
2023/08/02 00:30:30;;;;;;;0.00;0.00;;;19.70;85.40;;;;;;4979384;28;20061;-77
2023/08/02 00:32:55;;;;;;;0.00;0.00;;;19.50;86.20;;;;;;4978163;28;20097;-75
2023/08/02 00:35:21;;;;;;;0.77;0.47;;;19.60;86.60;;;;;;4981376;28;20026;-78
2023/08/02 00:37:47;;;;;;;1.70;1.40;;;19.70;85.60;;;;;;4988636;28;20025;-79
2023/08/02 00:40:13;;;;;;;0.37;0.37;;;19.70;85.50;;;;;;4989656;28;20510;-76
2023/08/02 00:42:38;;;;;;;0.10;0.10;;;19.70;85.20;;;;;;4987030;28;20105;-75
2023/08/02 00:45:05;;;;;;;0.37;0.37;;;19.60;85.50;;;;;;4987818;28;20034;-78
2023/08/02 00:47:34;;;;;;;0.15;0.15;;;19.60;85.50;;;;;;4986955;28;20030;-78
2023/08/02 00:50:04;;;;;;;2.50;1.20;;;19.60;85.60;;;;;;4984500;28;20050;-79
2023/08/02 00:52:30;;;;;;;0.13;0.13;;;19.60;85.80;;;;;;4985313;28;20065;-77
2023/08/02 00:54:57;;;;;;;0.00;0.00;;;19.50;87.10;;;;;;4983870;28;20553;-80
2023/08/02 00:57:22;;;;;;;0.75;0.45;;;19.50;87.70;;;;;;4984373;28;20784;-77
2023/08/02 00:59:48;;;;;;;0.83;0.60;;;19.40;88.20;;;;;;4987669;28;20042;-77
2023/08/02 01:02:14;;;;;;;2.23;0.40;;;19.50;88.70;;;;;;4985849;28;20177;-78
2023/08/02 01:04:40;;;;;;;0.20;0.20;;;19.40;88.90;;;;;;4993159;28;20082;-78
2023/08/02 01:07:44;;;;;;;0.55;0.50;;;19.30;89.80;;;;;;4984467;28;20022;-77
2023/08/02 01:10:13;;;;;;;0.20;0.20;;;19.30;89.80;;;;;;4983988;28;20050;-80
2023/08/02 01:12:44;;;;;;;0.10;0.10;;;19.40;90.10;;;;;;4983881;28;20068;-78
2023/08/02 01:15:13;;;;;;;0.10;0.10;;;19.30;90.30;;;;;;4984488;28;20109;-79
2023/08/02 01:17:39;;;;;;;0.10;0.10;;;19.20;90.30;;;;;;4986725;28;20842;-78
2023/08/02 01:20:06;;;;;;;0.20;0.20;;;19.20;90.50;;;;;;4983247;28;20068;-81
2023/08/02 01:22:31;;;;;;;;;;;19.20;90.50;;;;;;4991056;28;20080;-76
2023/08/02 01:25:01;;;;;;;0.77;0.77;;;19.30;90.80;;;;;;4986052;28;20680;-77
2023/08/02 01:27:36;;;;;;;0.93;0.35;;;19.20;90.80;;;;;;4985145;28;20046;-80
2023/08/02 01:30:04;;;;;;;0.30;0.30;;;19.20;91.00;;;;;;4983822;28;20529;-79
2023/08/02 01:32:30;;;;;;;0.63;0.52;;;19.20;91.10;;;;;;4985501;28;20030;-81
2023/08/02 01:34:56;;;;;;;1.97;0.77;;;19.20;91.20;;;;;;4986138;28;20035;-77
2023/08/02 01:37:22;;;;;;;2.60;0.80;;;19.20;91.40;;;;;;4985319;28;20622;-77
2023/08/02 01:39:47;;;;;;;0.10;0.10;;;19.10;91.60;;;;;;4984665;28;20042;-77
2023/08/02 01:42:14;;;;;;;1.03;0.67;;;19.00;91.90;;;;;;4984595;28;20018;-75
2023/08/02 01:44:39;;;;;;;0.20;0.20;;;19.00;92.20;;;;;;4984913;28;20038;-77
2023/08/02 01:47:05;;;;;;;0.60;0.60;;;19.00;92.30;;;;;;4979394;28;20791;-82
2023/08/02 01:49:31;;;;;;;0.83;0.57;;;19.00;92.50;;;;;;4981213;28;20594;-78
2023/08/02 01:51:56;;;;;;;0.20;0.20;;;19.00;92.50;;;;;;4984265;28;20540;-79
2023/08/02 01:54:22;;;;;;;0.73;0.73;;;19.00;92.70;;;;;;4983998;28;20049;-77
2023/08/02 01:56:48;;;;;;;0.67;0.67;;;18.90;92.80;;;;;;4984954;28;20382;-75
2023/08/02 01:59:13;;;;;;;0.43;0.43;;;18.90;93.20;;;;;;4985359;28;20603;-75
2023/08/02 02:01:39;;;;;;;0.67;0.67;;;18.90;93.60;;;;;;4984197;28;20805;-77
2023/08/02 02:04:06;;;;;;;0.28;0.28;;;18.90;93.50;;;;;;4983490;28;20065;-77
2023/08/02 02:06:31;;;;;;;0.00;0.00;;;18.90;93.60;;;;;;4985557;28;20065;-80
2023/08/02 02:08:57;;;;;;;0.00;0.00;;;18.90;93.80;;;;;;4985632;28;20137;-78
2023/08/02 02:11:23;;;;;;;0.30;0.30;;;18.90;93.80;;;;;;4983292;28;20038;-75
2023/08/02 02:13:49;;;;;;;0.30;0.30;;;19.00;93.80;;;;;;4984162;28;20034;-77
2023/08/02 02:16:14;;;;;;;0.13;0.13;;;18.90;93.80;;;;;;4984306;28;20034;-82
2023/08/02 02:18:40;;;;;;;0.20;0.20;;;18.90;93.80;;;;;;4985023;28;20309;-75
2023/08/02 02:21:06;;;;;;;0.00;0.00;;;19.00;93.40;;;;;;4985425;28;20054;-80
2023/08/02 02:23:32;;;;;;;0.10;0.10;;;19.10;93.60;;;;;;4986538;28;20026;-82
2023/08/02 02:25:57;;;;;;;2.00;1.03;;;19.10;93.40;;;;;;4982379;28;20125;-77
2023/08/02 02:28:23;;;;;;;0.00;0.00;;;19.10;93.30;;;;;;4984604;28;20113;-77
2023/08/02 02:30:49;;;;;;;0.00;0.00;;;19.10;93.30;;;;;;4984461;28;20071;-80
2023/08/02 02:33:15;;;;;;;0.00;0.00;;;19.20;93.30;;;;;;4983645;28;20030;-81
2023/08/02 02:35:40;;;;;;;0.03;0.03;;;19.20;93.30;;;;;;4982300;28;20042;-79
2023/08/02 02:38:06;;;;;;;0.23;0.23;;;19.10;93.50;;;;;;4978090;28;21384;-76
2023/08/02 02:40:32;;;;;;;0.10;0.10;;;19.10;93.40;;;;;;4982590;28;20057;-78
2023/08/02 02:42:57;;;;;;;0.10;0.10;;;19.10;93.60;;;;;;4985559;28;20054;-77
2023/08/02 02:45:23;;;;;;;0.20;0.20;;;19.10;93.20;;;;;;4983104;28;20104;-76
2023/08/02 02:47:49;;;;;;;0.10;0.10;;;19.20;93.30;;;;;;4983488;28;20572;-76
2023/08/02 02:50:14;;;;;;;0.10;0.10;;;19.10;93.50;;;;;;4983924;28;20073;-81
2023/08/02 02:52:41;;;;;;;0.00;0.00;;;19.10;93.60;;;;;;4984623;28;20030;-78
2023/08/02 02:55:08;;;;;;;0.20;0.20;;;19.10;93.70;;;;;;4991654;28;20048;-79
2023/08/02 02:57:34;;;;;;;0.10;0.10;;;19.10;93.70;;;;;;4985298;28;20778;-81
2023/08/02 02:59:59;;;;;;;0.00;0.00;;;19.10;93.50;;;;;;4983103;28;20042;-80
2023/08/02 03:02:25;;;;;;;0.63;0.63;;;19.10;93.50;;;;;;4983239;28;21630;-76
2023/08/02 03:04:51;;;;;;;0.23;0.23;;;19.00;93.80;;;;;;4983751;28;20561;-78
2023/08/02 03:07:16;;;;;;;0.00;0.00;;;19.00;93.80;;;;;;4982722;28;20105;-78
2023/08/02 03:09:42;;;;;;;0.97;0.50;;;19.10;93.70;;;;;;4983025;28;20114;-77
2023/08/02 03:12:08;;;;;;;0.07;0.07;;;19.10;93.70;;;;;;4982744;28;20034;-75
2023/08/02 03:14:34;;;;;;;0.88;0.47;;;19.00;93.70;;;;;;4983473;28;20181;-78
2023/08/02 03:16:59;;;;;;;0.20;0.20;;;19.00;93.90;;;;;;4983297;28;20031;-78
2023/08/02 03:19:25;;;;;;;0.30;0.30;;;19.00;94.00;;;;;;4985325;28;20042;-78
2023/08/02 03:21:51;;;;;;;0.00;0.00;;;19.00;94.00;;;;;;4980492;28;20649;-78
2023/08/02 03:24:16;;;;;;;15.27;0.53;;;19.10;93.80;;;;;;4983017;28;20512;-79
2023/08/02 03:26:42;;;;;;;0.10;0.10;;;18.90;93.90;;;;;;4983237;28;20034;-79
2023/08/02 03:29:08;;;;;;;0.50;0.50;;;18.90;94.10;;;;;;4982439;28;20156;-78
2023/08/02 03:31:33;;;;;;;0.00;0.00;;;19.00;94.00;;;;;;4983779;28;20513;-75
2023/08/02 03:33:59;;;;;;;0.20;0.20;;;19.00;94.00;;;;;;4979657;28;20019;-78
2023/08/02 03:36:25;;;;;;;1.20;0.67;;;19.00;94.30;;;;;;4981854;28;20448;-82
2023/08/02 03:38:50;;;;;;;0.30;0.30;;;19.00;94.30;;;;;;4982434;28;20042;-76
2023/08/02 03:41:16;;;;;;;0.00;0.00;;;18.90;94.40;;;;;;4979761;28;20057;-80
2023/08/02 03:43:42;;;;;;;0.00;0.00;;;18.90;94.50;;;;;;4982622;28;20036;-79
2023/08/02 03:46:08;;;;;;;0.43;0.43;;;19.00;94.80;;;;;;4986321;28;20026;-76
2023/08/02 03:48:34;;;;;;;0.67;0.67;;;18.90;94.70;;;;;;4982470;28;20034;-76
2023/08/02 03:50:59;;;;;;;0.10;0.10;;;18.90;94.90;;;;;;4979905;28;20057;-81
2023/08/02 03:53:26;;;;;;;0.17;0.17;;;18.80;95.30;;;;;;4982309;28;20032;-77
2023/08/02 03:55:52;;;;;;;1.00;0.55;;;18.80;95.20;;;;;;4988212;28;20505;-81
2023/08/02 03:58:17;;;;;;;0.10;0.10;;;18.80;95.50;;;;;;4982475;28;20042;-76
2023/08/02 04:00:43;;;;;;;0.00;0.00;;;18.90;95.30;;;;;;4981424;28;20046;-76
2023/08/02 04:03:09;;;;;;;0.40;0.40;;;19.00;95.20;;;;;;4985324;28;20037;-75
2023/08/02 04:05:35;;;;;;;2.37;1.10;;;18.90;95.20;;;;;;4984999;28;20045;-81
2023/08/02 04:08:00;;;;;;;0.00;0.00;;;18.80;95.30;;;;;;4986140;28;20077;-77
2023/08/02 04:10:26;;;;;;;0.20;0.20;;;18.90;95.40;;;;;;4987404;28;20136;-77
2023/08/02 04:12:52;;;;;;;0.23;0.23;;;18.90;95.10;;;;;;4987131;28;20060;-79
2023/08/02 04:15:18;;;;;;;0.07;0.07;;;18.90;95.10;;;;;;4992421;28;20157;-77
2023/08/02 04:17:43;;;;;;;0.17;0.17;;;18.90;95.00;;;;;;4991975;28;20026;-76
2023/08/02 04:20:09;;;;;;;0.23;0.23;;;18.90;95.20;;;;;;4990876;28;20282;-76
2023/08/02 04:22:36;;;;;;;0.00;0.00;;;19.00;95.00;;;;;;4992768;28;20046;-79
2023/08/02 04:25:03;;;;;;;0.00;0.00;;;18.90;94.80;;;;;;4986832;28;20026;-78
2023/08/02 04:27:29;;;;;;;2.90;0.43;;;18.90;95.00;;;;;;4976746;28;20050;-75
2023/08/02 04:29:55;;;;;;;1.55;1.38;;;18.90;95.00;;;;;;4986713;28;20037;-78
2023/08/02 04:32:20;;;;;;;0.00;0.00;;;18.90;95.00;;;;;;4986742;28;20034;-76
2023/08/02 04:34:46;;;;;;;0.00;0.00;;;18.90;95.40;;;;;;4983459;28;20870;-78
2023/08/02 04:37:12;;;;;;;0.20;0.20;;;18.90;95.50;;;;;;4976624;28;20498;-80
2023/08/02 04:39:37;;;;;;;0.00;0.00;;;18.90;95.40;;;;;;4985025;28;20494;-77
2023/08/02 04:42:04;;;;;;;1.27;1.17;;;18.90;95.40;;;;;;4986003;28;20042;-76
2023/08/02 04:44:29;;;;;;;0.20;0.20;;;18.90;95.60;;;;;;4985992;28;20027;-79
2023/08/02 04:46:55;;;;;;;2.00;1.40;;;18.90;95.30;;;;;;4986194;28;20027;-76
2023/08/02 04:49:21;;;;;;;0.30;0.30;;;18.90;95.10;;;;;;4986333;28;20054;-80
2023/08/02 04:51:46;;;;;;;0.20;0.20;;;18.90;95.30;;;;;;4987341;28;20136;-77
2023/08/02 04:54:12;;;;;;;0.00;0.00;;;18.80;95.40;;;;;;4987360;28;20026;-79
2023/08/02 04:56:38;;;;;;;0.03;0.03;;;18.90;95.40;;;;;;4985682;28;20041;-76
2023/08/02 04:59:05;;;;;;;0.30;0.30;;;18.90;95.50;;;;;;4978049;28;20031;-76
2023/08/02 05:01:31;;;;;;;0.40;0.40;;;18.80;95.60;;;;;;4987710;28;20039;-77
2023/08/02 05:03:57;;;;;;;1.88;1.55;;;18.90;95.60;;;;;;4985799;28;20087;-79
2023/08/02 05:06:23;;;;;;;0.20;0.20;;;18.90;95.30;;;;;;4986282;28;20026;-78
2023/08/02 05:08:49;;;;;;;0.10;0.10;;;19.20;94.70;;;;;;4985675;28;20042;-81
2023/08/02 05:11:15;;;;;;;0.07;0.07;;;19.00;94.80;;;;;;4985693;28;21023;-80
2023/08/02 05:13:41;;;;;;;0.13;0.13;;;19.00;94.60;;;;;;4984575;28;20061;-79
2023/08/02 05:16:12;;;;;;;0.43;0.30;;;19.20;94.40;;;;;;4987257;28;20023;-80
2023/08/02 05:18:37;;;;;;;0.30;0.30;;;19.20;94.20;;;;;;4984707;28;20034;-80
2023/08/02 05:21:10;;;;;;;0.00;0.00;;;19.30;93.90;;;;;;4988085;28;20050;-78
2023/08/02 05:23:36;;;;;;;0.00;0.00;;;19.30;93.70;;;;;;4976298;28;20321;-82
2023/08/02 05:26:06;;;;;;;0.40;0.40;;;19.10;93.80;;;;;;4984495;28;20486;-80
2023/08/02 05:28:32;;;;;;;0.00;0.00;;;19.20;93.90;;;;;;4985540;28;20085;-82
2023/08/02 05:30:58;;;;;;;0.00;0.00;;;19.30;93.70;;;;;;4984363;28;20034;-79
2023/08/02 05:33:23;;;;;;;0.23;0.23;;;19.30;93.50;;;;;;4985838;28;20026;-79
2023/08/02 05:35:49;;;;;;;0.63;0.63;;;19.40;93.20;;;;;;4985158;28;20041;-81
2023/08/02 05:38:15;;;;;;;0.10;0.10;;;19.40;93.10;;;;;;4981640;28;20038;-81
2023/08/02 05:40:41;;;;;;;0.23;0.23;;;19.40;92.90;;;;;;4985157;28;20044;-82
2023/08/02 05:43:06;;;;;;;0.20;0.20;;;19.40;92.90;;;;;;4984183;28;20553;-81
2023/08/02 05:45:33;;;;;;;0.03;0.03;;;19.40;92.80;;;;;;4983154;28;20044;-79
2023/08/02 05:47:58;;;;;;;0.35;0.35;;;19.50;92.50;;;;;;4978858;28;20410;-82
2023/08/02 05:50:25;;;;;;;0.10;0.10;;;19.40;92.60;;;;;;4971458;28;20041;-78
2023/08/02 05:52:50;;;;;;;0.10;0.10;;;19.40;92.70;;;;;;4984491;28;20029;-77
2023/08/02 05:55:16;;;;;;;0.03;0.03;;;19.30;92.90;;;;;;4983857;28;20520;-76
2023/08/02 05:57:42;;;;;;;0.20;0.20;;;19.40;92.70;;;;;;4983997;28;20512;-79
2023/08/02 06:00:09;;;;;;;0.77;0.50;;;19.30;92.90;;;;;;4983469;28;20042;-79
2023/08/02 06:02:35;;;;;;;0.32;0.32;;;19.40;93.10;;;;;;4981698;28;20063;-78
2023/08/02 06:05:02;;;;;;;0.10;0.10;;;19.50;93.00;;;;;;4984350;28;20062;-79
2023/08/02 06:07:28;;;;;;;0.10;0.10;;;19.60;92.70;;;;;;4984698;28;20501;-79
2023/08/02 06:09:53;;;;;;;0.10;0.10;;;19.70;92.40;;;;;;4984237;28;20022;-79
2023/08/02 06:12:19;;;;;;;0.00;0.00;;;19.70;92.40;;;;;;4983881;28;20041;-79
2023/08/02 06:14:45;;;;;;;0.20;0.20;;;19.70;92.50;;;;;;4984127;28;20033;-79
2023/08/02 06:17:10;;;;;;;0.00;0.00;;;19.50;92.90;;;;;;4984087;28;20493;-77
2023/08/02 06:19:36;;;;;;;0.00;0.00;;;19.60;92.70;;;;;;4975927;28;20070;-78
2023/08/02 06:22:02;;;;;;;0.10;0.10;;;19.70;92.60;;;;;;4982986;28;20234;-80
2023/08/02 06:24:27;;;;;;;1.20;0.73;;;19.80;92.40;;;;;;4984844;28;20027;-79
2023/08/02 06:26:53;;;;;;;0.20;0.20;;;19.90;92.10;;;;;;4984397;28;20034;-79
2023/08/02 06:29:19;;;;;;;0.00;0.00;;;19.80;92.20;;;;;;4984429;28;20038;-77
2023/08/02 06:31:44;;;;;;;0.00;0.00;;;19.80;92.40;;;;;;4982432;28;20045;-79
2023/08/02 06:34:10;;;;;;;0.67;0.67;;;19.70;92.60;;;;;;4979162;28;20023;-79
2023/08/02 06:36:38;;;;;;;0.40;0.40;;;19.80;92.60;;;;;;4985409;28;20031;-79
2023/08/02 06:39:04;;;;;;;0.50;0.47;;;19.80;92.50;;;;;;4984140;28;20569;-78
2023/08/02 06:41:30;;;;;;;0.25;0.25;;;19.90;92.30;;;;;;4983787;28;20082;-79
2023/08/02 06:43:56;;;;;;;0.33;0.33;;;20.00;92.40;;;;;;4984546;28;20573;-80
2023/08/02 06:46:22;;;;;;;0.30;0.30;;;20.00;92.20;;;;;;4979227;28;20093;-80
2023/08/02 06:48:47;;;;;;;0.00;0.00;;;20.40;91.60;;;;;;4982418;28;20038;-78
2023/08/02 06:51:13;;;;;;;0.20;0.20;;;20.60;91.10;;;;;;4983676;28;20790;-79
2023/08/02 06:53:39;;;;;;;1.00;0.93;;;20.50;90.90;;;;;;4982518;28;20144;-80
2023/08/02 06:56:13;;;;;;;0.00;0.00;;;20.50;91.40;;;;;;4983164;28;20166;-79
2023/08/02 06:58:39;;;;;;;1.17;0.15;;;20.40;91.40;;;;;;4977580;28;20038;-79
2023/08/02 07:01:15;;;;;;;0.15;0.15;;;20.30;91.50;;;;;;4977758;28;20053;-80
2023/08/02 07:03:42;;;;;;;0.00;0.00;;;20.20;91.90;;;;;;4984070;28;20054;-78
2023/08/02 07:06:12;;;;;;;0.17;0.17;;;20.20;92.10;;;;;;4982239;28;20394;-77
2023/08/02 07:08:39;;;;;;;1.02;0.25;;;20.30;92.10;;;;;;4981815;28;20041;-77
2023/08/02 07:11:04;;;;;;;;;;;20.50;91.70;;;;;;4982349;28;20026;-80
2023/08/02 07:13:36;;;;;;;0.32;0.32;;;21.30;90.30;;;;;;4981774;28;19944;-79
2023/08/02 07:16:02;;;;;;;0.30;0.30;;;21.40;88.80;;;;;;4983022;28;20023;-76
2023/08/02 07:18:28;;;;;;;;;;;21.70;88.00;;;;;;4979183;28;20030;-78
2023/08/02 07:20:54;;;;;;;0.30;0.30;;;21.60;87.80;;;;;;4986550;28;19921;-83
2023/08/02 07:23:20;;;;;;;1.83;1.20;;;21.80;86.70;;;;;;4983274;28;20034;-78
2023/08/02 07:25:45;;;;;;;0.20;0.20;;;21.50;87.40;;;;;;4983597;28;20472;-78
2023/08/02 07:28:11;;;;;;;0.13;0.13;;;21.40;88.30;;;;;;4983395;28;20084;-78
2023/08/02 07:30:37;;;;;;;0.53;0.53;;;21.40;88.10;;;;;;4983738;28;20038;-77
2023/08/02 07:33:02;;;;;;;0.00;0.00;;;21.30;89.00;;;;;;4983373;28;20030;-78
2023/08/02 07:35:28;;;;;;;0.30;0.30;;;21.50;88.80;;;;;;4981154;28;20030;-77
2023/08/02 07:37:54;;;;;;;0.00;0.00;;;22.40;85.00;;;;;;4981497;28;20027;-79
2023/08/02 07:40:20;;;;;;;0.00;0.00;;;21.40;86.40;;;;;;4981862;28;20065;-80
2023/08/02 07:42:45;;;;;;;0.47;0.47;;;20.90;90.40;;;;;;4981377;28;20038;-79
2023/08/02 07:45:12;;;;;;;0.20;0.20;;;20.90;91.40;;;;;;4982637;28;20731;-79
2023/08/02 07:47:39;;;;;;;0.00;0.00;;;21.00;90.60;;;;;;4983349;28;20478;-79
2023/08/02 07:50:05;;;;;;;0.00;0.00;;;21.20;89.70;;;;;;4984765;28;20030;-80
2023/08/02 07:52:32;;;;;;;0.00;0.00;;;21.20;90.00;;;;;;4983258;28;20074;-80
2023/08/02 07:54:58;;;;;;;0.95;0.90;;;21.00;90.00;;;;;;4983317;28;20516;-80
2023/08/02 07:57:26;;;;;;;0.08;0.08;;;20.90;89.60;;;;;;4982762;28;20121;-76
2023/08/02 07:59:52;;;;;;;0.90;0.90;;;21.30;88.80;;;;;;4982285;28;20038;-79
2023/08/02 08:02:19;;;;;;;0.15;0.15;;;21.60;86.70;;;;;;4982472;28;20038;-79
2023/08/02 08:04:45;;;;;;;0.25;0.25;;;21.70;86.60;;;;;;4983455;28;20098;-80
2023/08/02 08:07:11;;;;;;;1.00;0.90;;;22.00;85.90;;;;;;4982222;28;20032;-79
2023/08/02 08:09:37;;;;;;;5.67;0.43;;;21.90;86.40;;;;;;4983260;28;20030;-78
2023/08/02 08:12:04;;;;;;;0.20;0.20;;;22.30;85.00;;;;;;4982142;28;20022;-80
2023/08/02 08:14:31;;;;;;;0.45;0.45;;;22.60;83.20;;;;;;4982503;28;20026;-80
2023/08/02 08:16:58;;;;;;;2.58;0.32;;;23.50;79.80;;;;;;4982517;28;20029;-79
2023/08/02 08:19:23;;;;;;;;;;;23.30;78.90;;;;;;4983994;28;20126;-77
2023/08/02 08:21:49;;;;;;;0.85;0.85;;;23.10;79.70;;;;;;4981078;28;19925;-79
2023/08/02 08:24:15;;;;;;;0.00;0.00;;;22.70;81.70;;;;;;4982866;28;20592;-81
2023/08/02 08:26:40;;;;;;;0.30;0.30;;;22.60;82.10;;;;;;4982527;28;20034;-78
2023/08/02 08:29:06;;;;;;;2.33;0.87;;;22.70;82.20;;;;;;4982268;28;20033;-80
2023/08/02 08:31:32;;;;;;;0.47;0.43;;;22.30;83.70;;;;;;4983391;28;20113;-78
2023/08/02 08:33:58;;;;;;;0.30;0.30;;;22.30;83.80;;;;;;4982344;28;20027;-81
2023/08/02 08:36:26;;;;;;;0.20;0.20;;;21.90;85.10;;;;;;4981183;28;20053;-78
2023/08/02 08:38:52;;;;;;;0.15;0.15;;;21.80;85.10;;;;;;4981071;28;20049;-79
2023/08/02 08:41:18;;;;;;;0.40;0.35;;;22.00;86.00;;;;;;4982701;28;20589;-79
2023/08/02 08:43:44;;;;;;;0.52;0.52;;;24.10;80.90;;;;;;4983047;28;20054;-77
2023/08/02 08:46:13;;;;;;;;;;;25.70;74.20;;;;;;4988346;28;20029;-81
2023/08/02 08:48:39;;;;;;;0.30;0.30;;;25.20;72.40;;;;;;4982168;28;19910;-79
2023/08/02 08:51:06;;;;;;;1.25;0.82;;;26.90;68.30;;;;;;4982637;28;20069;-82
2023/08/02 08:53:33;;;;;;;0.00;0.00;;;26.50;68.60;;;;;;4981158;28;20101;-78
2023/08/02 08:56:00;;;;;;;0.00;0.00;;;26.10;66.80;;;;;;4985658;28;20022;-77
2023/08/02 08:58:26;;;;;;;0.65;0.65;;;25.90;70.00;;;;;;4986210;28;20030;-79
2023/08/02 09:00:54;;;;;;;28.67;0.63;;;27.90;68.50;;;;;;4984626;28;20044;-81
2023/08/02 09:03:20;;;;;;;0.70;0.60;;;29.40;61.40;;;;;;4986556;28;20045;-81
2023/08/02 09:05:46;;;;;;;0.60;0.60;;;28.80;61.50;;;;;;4986072;28;20026;-79
2023/08/02 09:08:12;;;;;;;0.00;0.00;;;26.80;65.40;;;;;;4984251;28;20497;-80
2023/08/02 09:10:39;;;;;;;1.08;0.65;;;26.20;67.70;;;;;;4984216;28;20041;-78
2023/08/02 09:13:04;;;;;;;;;;;25.00;70.30;;;;;;4984262;28;20221;-79
2023/08/02 09:15:30;;;;;;;0.73;0.68;;;24.70;72.40;;;;;;4983915;28;20020;-79
2023/08/02 09:17:56;;;;;;;0.38;0.38;;;24.10;74.80;;;;;;4985417;28;20053;-77
2023/08/02 09:20:24;;;;;;;0.30;0.30;;;24.00;74.70;;;;;;4987451;28;20521;-81
2023/08/02 09:22:50;;;;;;;0.00;0.00;;;23.70;75.00;;;;;;4983922;28;20050;-79
2023/08/02 09:25:21;;;;;;;0.20;0.20;;;23.20;77.30;;;;;;4985799;28;20066;-78
2023/08/02 09:27:48;;;;;;;0.10;0.10;;;23.10;78.90;;;;;;4985314;28;20803;-78
2023/08/02 09:30:32;;;;;;;0.10;0.10;;;23.20;78.40;;;;;;4985430;28;20381;-77
2023/08/02 09:33:03;;;;;;;0.55;0.55;;;23.10;79.60;;;;;;4985356;28;20033;-77
2023/08/02 09:35:33;;;;;;;0.00;0.00;;;23.00;79.10;;;;;;4981427;28;20022;-77
2023/08/02 09:37:58;;;;;;;0.05;0.05;;;22.70;79.90;;;;;;4983879;28;20117;-78
2023/08/02 09:40:38;;;;;;;0.00;0.00;;;22.70;80.80;;;;;;4985040;28;20042;-77
2023/08/02 09:43:04;;;;;;;0.10;0.10;;;22.90;80.70;;;;;;4975148;28;20025;-77
2023/08/02 09:45:34;;;;;;;0.55;0.35;;;23.00;79.20;;;;;;4984478;28;20034;-79
2023/08/02 09:48:00;;;;;;;0.43;0.43;;;22.90;77.90;;;;;;4974197;28;20031;-79
2023/08/02 09:50:26;;;;;;;0.20;0.20;;;22.60;79.70;;;;;;4984408;28;20029;-78
2023/08/02 09:52:51;;;;;;;0.85;0.85;;;22.30;80.30;;;;;;4984815;28;20030;-79
2023/08/02 09:55:17;;;;;;;0.10;0.10;;;22.30;80.70;;;;;;4983567;28;20030;-78
2023/08/02 09:57:45;;;;;;;0.00;0.00;;;22.50;80.60;;;;;;4984830;28;21041;-77
2023/08/02 10:00:11;;;;;;;3.50;0.28;;;22.80;79.80;;;;;;4984667;28;20034;-78
2023/08/02 10:02:38;;;;;;;0.00;0.00;;;22.90;77.50;;;;;;4984036;28;20591;-78
2023/08/02 10:05:04;;;;;;;;;;;23.00;78.60;;;;;;4981816;28;20534;-77
2023/08/02 10:07:36;;;;;;;0.03;0.03;;;24.00;75.20;;;;;;4982709;28;19909;-79
2023/08/02 10:10:09;;;;;;;0.00;0.00;;;24.80;72.10;;;;;;4985053;28;20125;-80
2023/08/02 10:12:38;;;;;;;0.05;0.05;;;24.70;73.90;;;;;;4991634;28;20026;-84
2023/08/02 10:15:04;;;;;;;0.00;0.00;;;25.20;72.00;;;;;;4977415;28;20030;-81
2023/08/02 10:17:31;;;;;;;0.10;0.10;;;25.40;69.30;;;;;;4984798;28;20038;-78
2023/08/02 10:19:59;;;;;;;0.00;0.00;;;25.40;70.40;;;;;;4987178;28;20489;-79
2023/08/02 10:22:26;;;;;;;0.08;0.08;;;24.50;72.40;;;;;;4991930;28;20061;-82
2023/08/02 10:24:52;;;;;;;0.00;0.00;;;24.50;73.40;;;;;;4985130;28;20033;-78
2023/08/02 10:27:19;;;;;;;0.00;0.00;;;24.30;73.80;;;;;;4984853;28;20034;-81
2023/08/02 10:29:47;;;;;;;1.20;0.90;;;24.50;73.30;;;;;;4985614;28;20035;-80
2023/08/02 10:32:17;;;;;;;1.85;0.43;;;24.60;72.10;;;;;;4982812;28;20058;-78
2023/08/02 10:34:44;;;;;;;0.05;0.05;;;24.50;74.40;;;;;;4979720;28;20372;-78
2023/08/02 10:37:10;;;;;;;0.47;0.47;;;24.40;73.20;;;;;;4982863;28;20041;-79
2023/08/02 10:39:48;;;;;;;0.13;0.13;;;24.80;73.90;;;;;;4984422;28;20042;-78
2023/08/02 10:42:20;;;;;;;0.00;0.00;;;24.50;73.30;;;;;;4983668;28;20077;-80
2023/08/02 10:44:55;;;;;;;1.05;0.68;;;24.00;75.20;;;;;;4984273;28;20117;-80
2023/08/02 10:47:28;;;;;;;0.68;0.68;;;25.40;71.70;;;;;;4985562;28;20557;-81
2023/08/02 10:49:55;;;;;;;0.00;0.00;;;24.90;70.60;;;;;;4986967;28;20022;-82
2023/08/02 10:52:35;;;;;;;0.40;0.40;;;24.40;72.80;;;;;;4983903;28;20513;-78
2023/08/02 10:55:17;;;;;;;0.57;0.57;;;24.40;72.70;;;;;;4980807;28;20038;-80
2023/08/02 10:57:55;;;;;;;0.10;0.10;;;23.90;74.70;;;;;;4986674;28;20045;-79
2023/08/02 11:00:24;;;;;;;0.22;0.20;;;23.80;75.70;;;;;;4983097;28;20042;-78
2023/08/02 11:02:51;;;;;;;0.10;0.10;;;24.10;74.60;;;;;;4982544;28;20030;-79
2023/08/02 11:05:42;;;;;;;0.00;0.00;;;24.30;74.30;;;;;;4991359;28;20030;-78
2023/08/02 11:08:09;;;;;;;0.15;0.15;;;24.60;72.70;;;;;;4980145;28;20383;-80
2023/08/02 11:10:51;;;;;;;0.20;0.20;;;24.60;73.30;;;;;;4983614;28;20037;-81
2023/08/02 11:13:17;;;;;;;0.30;0.30;;;24.10;74.30;;;;;;4982215;28;20034;-79
2023/08/02 11:15:43;;;;;;;0.10;0.10;;;24.00;75.70;;;;;;4983523;28;20028;-78
2023/08/02 11:18:09;;;;;;;1.17;0.70;;;24.50;74.10;;;;;;4983343;28;20031;-77
2023/08/02 11:20:37;;;;;;;0.00;0.00;;;24.70;74.20;;;;;;4987249;28;20692;-80
2023/08/02 11:23:25;;;;;;;0.17;0.17;;;24.90;72.80;;;;;;4983170;28;20396;-82
2023/08/02 11:26:04;;;;;;;7.90;0.57;;;24.90;70.90;;;;;;4969982;28;20039;-80
2023/08/02 11:28:41;;;;;;;0.20;0.03;;;24.80;71.20;;;;;;4973253;28;20167;-82
2023/08/02 11:31:07;;;;;;;0.50;0.38;;;24.70;72.40;;;;;;4981824;28;20030;-80
2023/08/02 11:33:33;;;;;;;0.52;0.52;;;25.10;72.00;;;;;;4983313;28;20027;-79
2023/08/02 11:35:58;;;;;;;0.10;0.10;;;25.50;71.10;;;;;;4984105;28;20034;-78
2023/08/02 11:38:25;;;;;;;0.05;0.05;;;25.50;69.90;;;;;;4983656;28;20026;-79
2023/08/02 11:40:51;;;;;;;0.00;0.00;;;25.80;69.80;;;;;;4982504;28;20096;-81
2023/08/02 11:43:16;;;;;;;0.22;0.22;;;25.10;69.70;;;;;;4982344;28;20555;-79
2023/08/02 11:45:42;;;;;;;0.00;0.00;;;24.80;71.10;;;;;;4982049;28;20085;-79
2023/08/02 11:48:24;;;;;;;0.10;0.10;;;24.60;72.70;;;;;;4980050;28;20089;-79
2023/08/02 11:50:50;;;;;;;0.20;0.20;;;24.60;71.70;;;;;;4983063;28;20273;-79
2023/08/02 11:53:16;;;;;;;0.10;0.10;;;24.50;72.80;;;;;;4983101;28;20038;-79
2023/08/02 11:55:42;;;;;;;0.03;0.03;;;24.40;73.00;;;;;;4973783;28;20034;-79
2023/08/02 11:58:09;;;;;;;0.00;0.00;;;24.40;73.20;;;;;;4971976;28;20031;-78
2023/08/02 12:00:37;;;;;;;0.05;0.05;;;24.60;72.20;;;;;;4983078;28;20124;-80
2023/08/02 12:03:13;;;;;;;0.00;0.00;;;25.00;71.80;;;;;;4983260;28;20041;-81
2023/08/02 12:05:41;;;;;;;0.15;0.15;;;26.10;70.70;;;;;;4977594;28;20023;-80
2023/08/02 12:08:12;;;;;;;3.92;0.73;;;26.80;68.90;;;;;;4976904;28;20041;-79
2023/08/02 12:10:39;;;;;;;1.08;0.40;;;26.70;66.30;;;;;;4978658;28;20632;-80
2023/08/02 12:13:16;;;;;;;0.00;0.00;;;26.80;66.40;;;;;;4982177;28;20505;-80
2023/08/02 12:15:57;;;;;;;0.10;0.10;;;26.80;66.40;;;;;;4978590;28;20121;-78
2023/08/02 12:18:23;;;;;;;0.13;0.10;;;27.00;68.10;;;;;;4975664;28;20028;-78
2023/08/02 12:20:48;;;;;;;0.00;0.00;;;27.10;65.10;;;;;;4986400;28;20038;-78
2023/08/02 12:23:35;;;;;;;0.25;0.25;;;26.80;66.00;;;;;;4981236;28;20288;-78
2023/08/02 12:26:01;;;;;;;1.20;0.47;;;26.30;66.90;;;;;;4981064;28;20521;-78
2023/08/02 12:28:45;;;;;;;0.10;0.10;;;25.60;68.30;;;;;;4982795;28;20034;-81
2023/08/02 12:31:12;;;;;;;0.00;0.00;;;25.00;70.50;;;;;;4984378;28;20034;-78
2023/08/02 12:33:37;;;;;;;0.35;0.35;;;24.60;71.20;;;;;;4983596;28;20065;-79
2023/08/02 12:36:04;;;;;;;0.47;0.47;;;24.30;72.60;;;;;;4984305;28;20030;-77
2023/08/02 12:38:30;;;;;;;0.55;0.55;;;24.10;73.40;;;;;;4986925;28;20300;-79
2023/08/02 12:41:00;;;;;;;0.20;0.20;;;24.10;73.90;;;;;;4985893;28;20070;-79
2023/08/02 12:43:27;;;;;;;0.43;0.43;;;24.10;74.00;;;;;;4986244;28;20023;-78
2023/08/02 12:45:53;;;;;;;0.00;0.00;;;24.30;73.00;;;;;;4984550;28;20531;-80
2023/08/02 12:48:19;;;;;;;0.00;0.00;;;24.10;73.50;;;;;;4984959;28;20105;-78